Main page
Satellite images Climate Cyclones Lightning AirportsFAQ Languages Contact Newsletter About
Weather : Europe Africa North America South America Asia Australia-Oceania Others

1216, Hong Kong, Hong Kong International Airport

latitude: , longitude: China, elevation: 22-19N m


METAR: VHHH 270030Z 02005KT 9999 FEW020 31/25 Q1004 TEMPO 4000 SHRA